sensor_id;sensor_type;location;lat;lon;timestamp;pressure;altitude;pressure_sealevel;temperature;humidity
27958;BME280;15295;42.658;23.374;2022-10-26T00:02:23;95058.06;;;21.83;42.00
27958;BME280;15295;42.658;23.374;2022-10-26T00:04:54;95055.38;;;21.79;42.00
27958;BME280;15295;42.658;23.374;2022-10-26T00:07:23;95029.34;;;21.55;42.35
27958;BME280;15295;42.658;23.374;2022-10-26T00:10:15;95048.56;;;21.71;42.52
27958;BME280;15295;42.658;23.374;2022-10-26T00:12:42;95049.34;;;21.72;42.38
27958;BME280;15295;42.658;23.374;2022-10-26T00:17:39;95065.13;;;21.75;42.30
27958;BME280;15295;42.658;23.374;2022-10-26T00:20:09;95037.69;;;21.55;42.24
27958;BME280;15295;42.658;23.374;2022-10-26T00:22:40;95037.22;;;21.57;42.43
27958;BME280;15295;42.658;23.374;2022-10-26T00:25:06;95060.47;;;21.72;42.24
27958;BME280;15295;42.658;23.374;2022-10-26T00:27:32;95032.56;;;21.53;42.39
27958;BME280;15295;42.658;23.374;2022-10-26T00:30:20;95062.00;;;21.64;42.40
27958;BME280;15295;42.658;23.374;2022-10-26T00:33:11;95063.22;;;21.63;42.32
27958;BME280;15295;42.658;23.374;2022-10-26T00:35:56;95040.69;;;21.39;42.39
27958;BME280;15295;42.658;23.374;2022-10-26T00:38:40;95072.09;;;21.48;42.47
27958;BME280;15295;42.658;23.374;2022-10-26T00:41:29;95052.91;;;21.41;42.41
27958;BME280;15295;42.658;23.374;2022-10-26T00:43:57;95031.53;;;21.29;42.18
27958;BME280;15295;42.658;23.374;2022-10-26T00:46:36;95039.56;;;21.27;42.56
27958;BME280;15295;42.658;23.374;2022-10-26T00:49:13;95054.88;;;21.32;42.27
27958;BME280;15295;42.658;23.374;2022-10-26T00:52:07;95062.75;;;21.33;42.55
27958;BME280;15295;42.658;23.374;2022-10-26T00:55:09;95030.06;;;21.16;42.77
27958;BME280;15295;42.658;23.374;2022-10-26T00:57:58;95032.38;;;21.17;42.78
27958;BME280;15295;42.658;23.374;2022-10-26T01:04:00;95043.88;;;21.28;42.64
27958;BME280;15295;42.658;23.374;2022-10-26T01:06:43;95056.09;;;21.31;42.73
27958;BME280;15295;42.658;23.374;2022-10-26T01:09:16;95046.06;;;21.33;42.79
27958;BME280;15295;42.658;23.374;2022-10-26T01:12:05;95049.31;;;21.32;42.70
27958;BME280;15295;42.658;23.374;2022-10-26T01:14:53;95053.16;;;21.25;43.01
27958;BME280;15295;42.658;23.374;2022-10-26T01:17:54;95040.00;;;21.26;42.76
27958;BME280;15295;42.658;23.374;2022-10-26T01:20:47;95047.91;;;21.27;43.20
27958;BME280;15295;42.658;23.374;2022-10-26T01:26:43;95049.56;;;21.25;43.12
27958;BME280;15295;42.658;23.374;2022-10-26T01:32:44;95047.75;;;21.31;43.19
27958;BME280;15295;42.658;23.374;2022-10-26T01:37:58;95046.47;;;21.23;43.31
27958;BME280;15295;42.658;23.374;2022-10-26T01:40:45;95042.13;;;21.22;43.57
27958;BME280;15295;42.658;23.374;2022-10-26T01:43:20;95036.91;;;21.24;43.28
27958;BME280;15295;42.658;23.374;2022-10-26T01:45:56;95023.72;;;21.15;42.97
27958;BME280;15295;42.658;23.374;2022-10-26T01:48:30;95011.50;;;21.13;43.17
27958;BME280;15295;42.658;23.374;2022-10-26T01:51:06;95041.41;;;21.30;43.24
27958;BME280;15295;42.658;23.374;2022-10-26T01:53:34;95042.19;;;21.31;43.20
27958;BME280;15295;42.658;23.374;2022-10-26T01:56:01;95042.19;;;21.31;42.77
27958;BME280;15295;42.658;23.374;2022-10-26T01:58:57;95040.50;;;21.33;42.99
27958;BME280;15295;42.658;23.374;2022-10-26T02:01:57;95036.94;;;21.33;42.98
27958;BME280;15295;42.658;23.374;2022-10-26T02:08:32;95043.88;;;21.28;43.18
27958;BME280;15295;42.658;23.374;2022-10-26T02:11:24;95040.78;;;21.26;43.12
27958;BME280;15295;42.658;23.374;2022-10-26T02:14:10;95015.47;;;21.03;42.96
27958;BME280;15295;42.658;23.374;2022-10-26T02:18:07;95042.41;;;20.93;42.58
27958;BME280;15295;42.658;23.374;2022-10-26T02:20:07;95032.47;;;20.49;43.52
27958;BME280;15295;42.658;23.374;2022-10-26T02:22:49;95047.03;;;20.53;44.24
27958;BME280;15295;42.658;23.374;2022-10-26T02:25:29;95056.25;;;20.50;44.32
27958;BME280;15295;42.658;23.374;2022-10-26T02:28:07;95023.69;;;20.29;44.94
27958;BME280;15295;42.658;23.374;2022-10-26T02:30:44;95046.31;;;20.40;45.05
27958;BME280;15295;42.658;23.374;2022-10-26T02:33:30;95042.66;;;20.30;45.38
27958;BME280;15295;42.658;23.374;2022-10-26T02:36:08;95036.69;;;20.07;45.42
27958;BME280;15295;42.658;23.374;2022-10-26T02:38:48;95031.16;;;19.94;45.98
27958;BME280;15295;42.658;23.374;2022-10-26T02:41:27;95053.13;;;20.01;46.11
27958;BME280;15295;42.658;23.374;2022-10-26T02:44:13;95060.34;;;19.98;45.88
27958;BME280;15295;42.658;23.374;2022-10-26T02:46:59;95061.69;;;19.81;46.28
27958;BME280;15295;42.658;23.374;2022-10-26T02:49:28;95008.66;;;19.29;47.03
27958;BME280;15295;42.658;23.374;2022-10-26T02:52:10;95014.53;;;19.31;47.28
27958;BME280;15295;42.658;23.374;2022-10-26T02:54:53;95036.69;;;19.31;47.50
27958;BME280;15295;42.658;23.374;2022-10-26T02:57:56;95066.75;;;19.33;47.75
27958;BME280;15295;42.658;23.374;2022-10-26T03:01:06;95033.81;;;19.09;47.96
27958;BME280;15295;42.658;23.374;2022-10-26T03:03:37;95059.28;;;19.04;48.35
27958;BME280;15295;42.658;23.374;2022-10-26T03:06:20;95064.03;;;19.04;48.76
27958;BME280;15295;42.658;23.374;2022-10-26T03:08:49;95068.38;;;19.05;48.60
27958;BME280;15295;42.658;23.374;2022-10-26T03:11:25;95073.34;;;19.10;48.65
27958;BME280;15295;42.658;23.374;2022-10-26T03:17:13;95053.91;;;18.85;48.74
27958;BME280;15295;42.658;23.374;2022-10-26T03:19:45;95069.31;;;18.86;49.12
27958;BME280;15295;42.658;23.374;2022-10-26T03:22:23;95064.75;;;18.79;48.94
27958;BME280;15295;42.658;23.374;2022-10-26T03:24:57;95069.63;;;18.75;48.80
27958;BME280;15295;42.658;23.374;2022-10-26T03:27:26;95090.91;;;18.91;49.06
27958;BME280;15295;42.658;23.374;2022-10-26T03:29:52;95080.41;;;18.86;49.18
27958;BME280;15295;42.658;23.374;2022-10-26T03:32:18;95080.09;;;18.96;48.95
27958;BME280;15295;42.658;23.374;2022-10-26T03:34:45;95071.63;;;18.87;49.23
27958;BME280;15295;42.658;23.374;2022-10-26T03:37:12;95044.25;;;18.77;49.10
27958;BME280;15295;42.658;23.374;2022-10-26T03:39:39;95056.34;;;18.83;49.48
27958;BME280;15295;42.658;23.374;2022-10-26T03:42:38;95070.22;;;18.95;48.93
27958;BME280;15295;42.658;23.374;2022-10-26T03:45:21;95061.22;;;18.91;49.35
27958;BME280;15295;42.658;23.374;2022-10-26T03:47:59;95065.78;;;18.98;49.06
27958;BME280;15295;42.658;23.374;2022-10-26T03:50:29;95064.16;;;19.00;48.94
27958;BME280;15295;42.658;23.374;2022-10-26T03:52:55;95055.59;;;18.95;49.13
27958;BME280;15295;42.658;23.374;2022-10-26T03:55:36;95081.56;;;19.13;48.95
27958;BME280;15295;42.658;23.374;2022-10-26T03:58:03;95096.09;;;19.17;49.44
27958;BME280;15295;42.658;23.374;2022-10-26T04:00:29;95081.00;;;19.18;49.14
27958;BME280;15295;42.658;23.374;2022-10-26T04:02:58;95064.81;;;19.04;48.95
27958;BME280;15295;42.658;23.374;2022-10-26T04:05:31;95076.25;;;19.19;48.96
27958;BME280;15295;42.658;23.374;2022-10-26T04:08:00;95096.56;;;19.29;48.94
27958;BME280;15295;42.658;23.374;2022-10-26T04:10:27;95093.00;;;19.28;49.22
27958;BME280;15295;42.658;23.374;2022-10-26T04:12:54;95094.22;;;19.27;49.07
27958;BME280;15295;42.658;23.374;2022-10-26T04:15:35;95098.03;;;19.33;49.16
27958;BME280;15295;42.658;23.374;2022-10-26T04:18:24;95106.38;;;19.46;49.34
27958;BME280;15295;42.658;23.374;2022-10-26T04:20:53;95084.09;;;19.37;49.37
27958;BME280;15295;42.658;23.374;2022-10-26T04:23:18;95101.19;;;19.48;49.47
27958;BME280;15295;42.658;23.374;2022-10-26T04:25:44;95103.03;;;19.51;49.47
27958;BME280;15295;42.658;23.374;2022-10-26T04:28:11;95101.50;;;19.50;49.15
27958;BME280;15295;42.658;23.374;2022-10-26T04:30:37;95104.63;;;19.52;49.42
27958;BME280;15295;42.658;23.374;2022-10-26T04:33:03;95106.47;;;19.55;48.98
27958;BME280;15295;42.658;23.374;2022-10-26T04:35:33;95101.72;;;19.55;49.42
27958;BME280;15295;42.658;23.374;2022-10-26T04:38:01;95098.41;;;19.48;49.28
27958;BME280;15295;42.658;23.374;2022-10-26T04:40:29;95110.50;;;19.54;49.13
27958;BME280;15295;42.658;23.374;2022-10-26T04:42:57;95072.47;;;19.42;49.35
27958;BME280;15295;42.658;23.374;2022-10-26T04:45:29;95065.22;;;19.44;49.37
27958;BME280;15295;42.658;23.374;2022-10-26T04:48:24;95090.19;;;19.57;49.18
27958;BME280;15295;42.658;23.374;2022-10-26T04:51:00;95080.53;;;19.61;49.19
27958;BME280;15295;42.658;23.374;2022-10-26T04:53:57;95113.16;;;19.82;48.88
27958;BME280;15295;42.658;23.374;2022-10-26T04:59:17;95115.06;;;19.85;48.83
27958;BME280;15295;42.658;23.374;2022-10-26T05:01:52;95091.22;;;19.63;48.66
27958;BME280;15295;42.658;23.374;2022-10-26T05:04:27;95091.31;;;19.59;48.46
27958;BME280;15295;42.658;23.374;2022-10-26T05:07:04;95112.16;;;19.64;48.22
27958;BME280;15295;42.658;23.374;2022-10-26T05:09:42;95132.22;;;19.80;48.39
27958;BME280;15295;42.658;23.374;2022-10-26T05:12:16;95088.19;;;19.57;48.15
27958;BME280;15295;42.658;23.374;2022-10-26T05:15:01;95132.94;;;19.84;47.88
27958;BME280;15295;42.658;23.374;2022-10-26T05:17:39;95077.69;;;19.52;48.43
27958;BME280;15295;42.658;23.374;2022-10-26T05:20:33;95108.41;;;19.70;48.06
27958;BME280;15295;42.658;23.374;2022-10-26T05:23:12;95127.25;;;19.88;47.27
27958;BME280;15295;42.658;23.374;2022-10-26T05:25:53;95130.69;;;19.79;46.61
27958;BME280;15295;42.658;23.374;2022-10-26T05:28:41;95093.84;;;19.41;46.65
27958;BME280;15295;42.658;23.374;2022-10-26T05:31:34;95130.00;;;19.50;47.00
27958;BME280;15295;42.658;23.374;2022-10-26T05:34:36;95127.31;;;19.34;46.91
27958;BME280;15295;42.658;23.374;2022-10-26T05:40:12;95121.03;;;18.89;47.33
27958;BME280;15295;42.658;23.374;2022-10-26T05:42:59;95158.41;;;18.97;47.76
27958;BME280;15295;42.658;23.374;2022-10-26T05:45:39;95154.03;;;18.83;48.22
27958;BME280;15295;42.658;23.374;2022-10-26T05:48:45;95164.38;;;18.95;48.49
27958;BME280;15295;42.658;23.374;2022-10-26T05:51:23;95146.00;;;18.73;48.58
27958;BME280;15295;42.658;23.374;2022-10-26T05:53:51;95164.16;;;18.90;48.64
27958;BME280;15295;42.658;23.374;2022-10-26T05:56:50;95163.25;;;18.93;48.95
27958;BME280;15295;42.658;23.374;2022-10-26T05:59:39;95181.09;;;18.92;48.80
27958;BME280;15295;42.658;23.374;2022-10-26T06:02:51;95174.88;;;18.88;48.68
27958;BME280;15295;42.658;23.374;2022-10-26T06:05:54;95176.78;;;18.91;49.26
27958;BME280;15295;42.658;23.374;2022-10-26T06:08:25;95187.91;;;19.03;49.67
27958;BME280;15295;42.658;23.374;2022-10-26T06:10:55;95185.53;;;19.18;49.53
27958;BME280;15295;42.658;23.374;2022-10-26T06:13:33;95181.88;;;19.21;49.31
27958;BME280;15295;42.658;23.374;2022-10-26T06:25:54;95196.63;;;19.47;48.59
27958;BME280;15295;42.658;23.374;2022-10-26T06:31:22;95204.09;;;19.62;48.75
27958;BME280;15295;42.658;23.374;2022-10-26T06:33:58;95178.22;;;19.53;48.47
27958;BME280;15295;42.658;23.374;2022-10-26T06:36:52;95196.25;;;19.73;48.25
27958;BME280;15295;42.658;23.374;2022-10-26T06:39:23;95193.25;;;19.80;48.58
27958;BME280;15295;42.658;23.374;2022-10-26T06:42:02;95173.75;;;19.71;48.38
27958;BME280;15295;42.658;23.374;2022-10-26T06:44:34;95203.28;;;19.90;47.93
27958;BME280;15295;42.658;23.374;2022-10-26T06:53:00;95198.75;;;20.22;47.93
27958;BME280;15295;42.658;23.374;2022-10-26T06:55:38;95207.75;;;20.26;47.46
27958;BME280;15295;42.658;23.374;2022-10-26T06:58:25;95219.75;;;20.48;47.59
27958;BME280;15295;42.658;23.374;2022-10-26T07:00:53;95216.63;;;20.58;47.22
27958;BME280;15295;42.658;23.374;2022-10-26T07:03:21;95215.94;;;20.67;47.28
27958;BME280;15295;42.658;23.374;2022-10-26T07:05:47;95217.91;;;20.79;47.20
27958;BME280;15295;42.658;23.374;2022-10-26T07:08:21;95219.31;;;20.96;46.97
27958;BME280;15295;42.658;23.374;2022-10-26T07:10:51;95199.22;;;20.92;46.84
27958;BME280;15295;42.658;23.374;2022-10-26T07:13:32;95209.25;;;21.24;46.09
27958;BME280;15295;42.658;23.374;2022-10-26T07:16:01;95230.16;;;21.72;44.97
27958;BME280;15295;42.658;23.374;2022-10-26T07:18:48;95204.41;;;22.02;45.08
27958;BME280;15295;42.658;23.374;2022-10-26T07:21:28;95180.00;;;22.46;43.87
27958;BME280;15295;42.658;23.374;2022-10-26T07:23:58;95202.44;;;23.18;42.86
27958;BME280;15295;42.658;23.374;2022-10-26T07:26:29;95220.91;;;23.70;41.60
27958;BME280;15295;42.658;23.374;2022-10-26T07:28:59;95212.66;;;24.03;40.52
27958;BME280;15295;42.658;23.374;2022-10-26T07:31:32;95228.69;;;24.44;39.87
27958;BME280;15295;42.658;23.374;2022-10-26T07:34:05;95207.03;;;24.63;38.83
27958;BME280;15295;42.658;23.374;2022-10-26T07:36:38;95178.22;;;24.47;38.81
27958;BME280;15295;42.658;23.374;2022-10-26T07:39:35;95217.75;;;25.20;38.56
27958;BME280;15295;42.658;23.374;2022-10-26T07:42:08;95185.16;;;25.56;37.31
27958;BME280;15295;42.658;23.374;2022-10-26T07:44:37;95214.09;;;26.06;36.55
27958;BME280;15295;42.658;23.374;2022-10-26T07:47:16;95209.66;;;26.43;36.06
27958;BME280;15295;42.658;23.374;2022-10-26T07:49:42;95194.38;;;26.73;35.12
27958;BME280;15295;42.658;23.374;2022-10-26T07:52:16;95181.75;;;26.83;34.62
27958;BME280;15295;42.658;23.374;2022-10-26T07:54:42;95202.13;;;27.18;34.50
27958;BME280;15295;42.658;23.374;2022-10-26T07:57:08;95199.03;;;27.57;33.54
27958;BME280;15295;42.658;23.374;2022-10-26T07:59:36;95218.59;;;27.91;32.63
27958;BME280;15295;42.658;23.374;2022-10-26T08:02:10;95203.03;;;27.70;32.87
27958;BME280;15295;42.658;23.374;2022-10-26T08:05:02;95207.50;;;27.82;32.17
27958;BME280;15295;42.658;23.374;2022-10-26T08:07:31;95176.25;;;27.95;31.58
27958;BME280;15295;42.658;23.374;2022-10-26T08:09:59;95159.81;;;27.88;32.00
27958;BME280;15295;42.658;23.374;2022-10-26T08:12:26;95201.19;;;28.39;31.12
27958;BME280;15295;42.658;23.374;2022-10-26T08:14:57;95212.22;;;28.73;30.82
27958;BME280;15295;42.658;23.374;2022-10-26T08:17:25;95203.44;;;28.97;30.78
27958;BME280;15295;42.658;23.374;2022-10-26T08:19:54;95204.88;;;29.18;30.27
27958;BME280;15295;42.658;23.374;2022-10-26T08:22:24;95215.47;;;29.40;30.30
27958;BME280;15295;42.658;23.374;2022-10-26T08:24:54;95218.97;;;29.77;29.19
27958;BME280;15295;42.658;23.374;2022-10-26T08:27:26;95190.66;;;29.44;29.02
27958;BME280;15295;42.658;23.374;2022-10-26T08:30:16;95225.66;;;29.85;29.03
27958;BME280;15295;42.658;23.374;2022-10-26T08:33:21;95157.19;;;29.68;28.64
27958;BME280;15295;42.658;23.374;2022-10-26T08:36:09;95198.06;;;30.17;28.37
27958;BME280;15295;42.658;23.374;2022-10-26T08:38:45;95200.63;;;30.20;28.25
27958;BME280;15295;42.658;23.374;2022-10-26T08:41:15;95204.50;;;30.39;27.90
27958;BME280;15295;42.658;23.374;2022-10-26T08:43:57;95199.38;;;30.43;27.75
27958;BME280;15295;42.658;23.374;2022-10-26T08:47:25;95213.22;;;30.80;27.42
27958;BME280;15295;42.658;23.374;2022-10-26T08:56:57;95184.44;;;31.20;26.21
27958;BME280;15295;42.658;23.374;2022-10-26T08:59:56;95192.94;;;31.15;26.54
27958;BME280;15295;42.658;23.374;2022-10-26T09:02:31;95201.31;;;31.48;26.44
27958;BME280;15295;42.658;23.374;2022-10-26T09:05:29;95185.38;;;31.51;26.23
27958;BME280;15295;42.658;23.374;2022-10-26T09:14:12;95217.59;;;32.35;24.69
27958;BME280;15295;42.658;23.374;2022-10-26T09:20:16;95221.69;;;32.39;24.08
27958;BME280;15295;42.658;23.374;2022-10-26T09:29:46;95186.19;;;32.38;24.70
27958;BME280;15295;42.658;23.374;2022-10-26T09:32:28;95212.16;;;32.72;24.11
27958;BME280;15295;42.658;23.374;2022-10-26T09:38:23;95170.31;;;32.65;23.51
27958;BME280;15295;42.658;23.374;2022-10-26T09:44:35;95207.91;;;33.19;22.82
27958;BME280;15295;42.658;23.374;2022-10-26T09:47:36;95175.94;;;32.95;22.99
27958;BME280;15295;42.658;23.374;2022-10-26T09:53:08;95171.38;;;33.40;22.52
27958;BME280;15295;42.658;23.374;2022-10-26T09:55:48;95177.50;;;33.68;21.65
27958;BME280;15295;42.658;23.374;2022-10-26T09:58:27;95180.94;;;33.61;22.25
27958;BME280;15295;42.658;23.374;2022-10-26T10:01:32;95201.06;;;34.19;21.64
27958;BME280;15295;42.658;23.374;2022-10-26T10:04:30;95202.41;;;34.31;21.01
27958;BME280;15295;42.658;23.374;2022-10-26T10:07:12;95196.75;;;34.31;21.23
27958;BME280;15295;42.658;23.374;2022-10-26T10:10:10;95190.75;;;34.53;21.26
27958;BME280;15295;42.658;23.374;2022-10-26T10:12:50;95157.47;;;34.35;20.99
27958;BME280;15295;42.658;23.374;2022-10-26T10:15:53;95186.00;;;34.43;20.74
27958;BME280;15295;42.658;23.374;2022-10-26T10:18:57;95162.09;;;34.20;21.36
27958;BME280;15295;42.658;23.374;2022-10-26T10:21:36;95184.09;;;34.32;20.58
27958;BME280;15295;42.658;23.374;2022-10-26T10:24:32;95153.06;;;34.21;20.74
27958;BME280;15295;42.658;23.374;2022-10-26T10:27:17;95181.84;;;34.44;20.38
27958;BME280;15295;42.658;23.374;2022-10-26T10:30:21;95174.19;;;34.20;20.76
27958;BME280;15295;42.658;23.374;2022-10-26T10:33:07;95169.97;;;34.45;20.54
27958;BME280;15295;42.658;23.374;2022-10-26T10:35:39;95160.88;;;34.65;20.08
27958;BME280;15295;42.658;23.374;2022-10-26T10:38:29;95145.16;;;34.46;19.99
27958;BME280;15295;42.658;23.374;2022-10-26T10:41:28;95139.91;;;34.68;20.43
27958;BME280;15295;42.658;23.374;2022-10-26T10:44:25;95124.78;;;34.92;19.93
27958;BME280;15295;42.658;23.374;2022-10-26T10:47:26;95166.22;;;35.40;19.55
27958;BME280;15295;42.658;23.374;2022-10-26T10:50:25;95172.59;;;35.59;19.58
27958;BME280;15295;42.658;23.374;2022-10-26T10:56:04;95153.28;;;36.04;19.09
27958;BME280;15295;42.658;23.374;2022-10-26T10:58:46;95144.75;;;36.04;18.96
27958;BME280;15295;42.658;23.374;2022-10-26T11:02:01;95143.94;;;36.17;18.90
27958;BME280;15295;42.658;23.374;2022-10-26T11:05:02;95150.19;;;36.15;18.81
27958;BME280;15295;42.658;23.374;2022-10-26T11:14:36;95118.88;;;36.15;18.95
27958;BME280;15295;42.658;23.374;2022-10-26T11:17:22;95104.59;;;36.08;18.72
27958;BME280;15295;42.658;23.374;2022-10-26T11:20:10;95132.22;;;36.20;18.78
27958;BME280;15295;42.658;23.374;2022-10-26T11:26:03;95138.84;;;36.02;19.33
27958;BME280;15295;42.658;23.374;2022-10-26T11:28:55;95138.06;;;36.02;19.37
27958;BME280;15295;42.658;23.374;2022-10-26T11:32:21;95109.31;;;35.92;19.29
27958;BME280;15295;42.658;23.374;2022-10-26T11:38:39;95086.84;;;35.68;19.46
27958;BME280;15295;42.658;23.374;2022-10-26T11:41:48;95098.41;;;35.83;19.25
27958;BME280;15295;42.658;23.374;2022-10-26T11:44:58;95130.94;;;36.08;18.99
27958;BME280;15295;42.658;23.374;2022-10-26T11:50:26;95125.31;;;36.29;18.81
27958;BME280;15295;42.658;23.374;2022-10-26T11:53:18;95121.88;;;36.44;18.58
27958;BME280;15295;42.658;23.374;2022-10-26T11:55:54;95114.44;;;36.27;18.77
27958;BME280;15295;42.658;23.374;2022-10-26T11:58:36;95078.91;;;36.00;18.59
27958;BME280;15295;42.658;23.374;2022-10-26T12:01:14;95089.63;;;35.94;18.65
27958;BME280;15295;42.658;23.374;2022-10-26T12:03:56;95091.59;;;35.99;18.64
27958;BME280;15295;42.658;23.374;2022-10-26T12:06:55;95081.44;;;35.91;18.48
27958;BME280;15295;42.658;23.374;2022-10-26T12:09:38;95063.00;;;35.71;18.41
27958;BME280;15295;42.658;23.374;2022-10-26T12:18:44;95101.88;;;35.89;17.93
27958;BME280;15295;42.658;23.374;2022-10-26T12:21:39;95073.50;;;35.63;17.87
27958;BME280;15295;42.658;23.374;2022-10-26T12:24:26;95114.38;;;35.86;18.29
27958;BME280;15295;42.658;23.374;2022-10-26T12:27:48;95087.47;;;35.74;17.61
27958;BME280;15295;42.658;23.374;2022-10-26T12:30:36;95111.09;;;35.82;17.48
27958;BME280;15295;42.658;23.374;2022-10-26T12:33:30;95084.44;;;35.59;17.51
27958;BME280;15295;42.658;23.374;2022-10-26T12:39:42;95049.75;;;35.14;17.58
27958;BME280;15295;42.658;23.374;2022-10-26T12:42:28;95100.84;;;35.40;17.13
27958;BME280;15295;42.658;23.374;2022-10-26T12:45:25;95101.31;;;35.31;17.25
27958;BME280;15295;42.658;23.374;2022-10-26T12:48:02;95068.06;;;34.86;17.42
27958;BME280;15295;42.658;23.374;2022-10-26T12:50:47;95054.50;;;34.53;17.54
27958;BME280;15295;42.658;23.374;2022-10-26T12:53:40;95102.91;;;34.74;17.61
27958;BME280;15295;42.658;23.374;2022-10-26T12:56:18;95081.28;;;34.39;17.69
27958;BME280;15295;42.658;23.374;2022-10-26T13:08:24;95062.25;;;33.71;18.03
27958;BME280;15295;42.658;23.374;2022-10-26T13:11:11;95099.31;;;33.73;18.44
27958;BME280;15295;42.658;23.374;2022-10-26T13:13:57;95065.13;;;33.28;18.28
27958;BME280;15295;42.658;23.374;2022-10-26T13:16:45;95116.16;;;33.47;18.58
27958;BME280;15295;42.658;23.374;2022-10-26T13:19:48;95098.16;;;33.25;18.32
27958;BME280;15295;42.658;23.374;2022-10-26T13:22:53;95104.38;;;33.42;18.22
27958;BME280;15295;42.658;23.374;2022-10-26T13:25:26;95098.88;;;33.26;18.32
27958;BME280;15295;42.658;23.374;2022-10-26T13:29:02;95105.88;;;33.01;17.98
27958;BME280;15295;42.658;23.374;2022-10-26T13:31:52;95105.81;;;32.82;17.82
27958;BME280;15295;42.658;23.374;2022-10-26T13:35:11;95085.41;;;32.35;17.98
27958;BME280;15295;42.658;23.374;2022-10-26T13:37:47;95088.03;;;32.28;18.05
27958;BME280;15295;42.658;23.374;2022-10-26T13:40:59;95080.84;;;31.91;18.25
27958;BME280;15295;42.658;23.374;2022-10-26T13:43:49;95086.78;;;31.88;18.27
27958;BME280;15295;42.658;23.374;2022-10-26T13:46:36;95103.97;;;31.95;18.31
27958;BME280;15295;42.658;23.374;2022-10-26T13:49:19;95063.38;;;31.52;18.26
27958;BME280;15295;42.658;23.374;2022-10-26T13:52:09;95118.78;;;31.66;18.40
27958;BME280;15295;42.658;23.374;2022-10-26T13:55:33;95083.88;;;31.06;18.39
27958;BME280;15295;42.658;23.374;2022-10-26T13:58:21;95125.16;;;31.15;18.29
27958;BME280;15295;42.658;23.374;2022-10-26T14:01:19;95086.03;;;30.62;18.66
27958;BME280;15295;42.658;23.374;2022-10-26T14:04:26;95121.16;;;30.66;19.06
27958;BME280;15295;42.658;23.374;2022-10-26T14:06:55;95104.25;;;30.27;19.08
27958;BME280;15295;42.658;23.374;2022-10-26T14:09:40;95083.47;;;29.86;19.29
27958;BME280;15295;42.658;23.374;2022-10-26T14:12:09;95127.28;;;29.93;19.40
27958;BME280;15295;42.658;23.374;2022-10-26T14:14:44;95088.78;;;29.56;19.68
27958;BME280;15295;42.658;23.374;2022-10-26T14:17:34;95105.19;;;29.63;19.59
27958;BME280;15295;42.658;23.374;2022-10-26T14:20:19;95126.69;;;29.55;19.90
27958;BME280;15295;42.658;23.374;2022-10-26T14:22:47;95102.53;;;29.27;19.90
27958;BME280;15295;42.658;23.374;2022-10-26T14:25:22;95130.69;;;29.32;19.77
27958;BME280;15295;42.658;23.374;2022-10-26T14:27:52;95098.00;;;28.92;20.57
27958;BME280;15295;42.658;23.374;2022-10-26T14:30:39;95124.06;;;28.87;20.60
27958;BME280;15295;42.658;23.374;2022-10-26T14:33:19;95117.84;;;28.72;20.91
27958;BME280;15295;42.658;23.374;2022-10-26T14:35:47;95090.03;;;28.43;20.86
27958;BME280;15295;42.658;23.374;2022-10-26T14:38:41;95117.63;;;28.39;21.65
27958;BME280;15295;42.658;23.374;2022-10-26T14:41:20;95125.50;;;28.35;21.86
27958;BME280;15295;42.658;23.374;2022-10-26T14:44:02;95098.44;;;28.06;22.02
27958;BME280;15295;42.658;23.374;2022-10-26T14:46:50;95109.56;;;27.95;21.84
27958;BME280;15295;42.658;23.374;2022-10-26T14:49:22;95100.44;;;27.75;22.03
27958;BME280;15295;42.658;23.374;2022-10-26T14:51:58;95141.31;;;27.76;22.09
27958;BME280;15295;42.658;23.374;2022-10-26T14:54:27;95118.13;;;27.55;22.29
27958;BME280;15295;42.658;23.374;2022-10-26T14:57:01;95120.06;;;27.43;22.81
27958;BME280;15295;42.658;23.374;2022-10-26T14:59:39;95105.19;;;27.17;22.64
27958;BME280;15295;42.658;23.374;2022-10-26T15:02:38;95142.63;;;27.34;22.60
27958;BME280;15295;42.658;23.374;2022-10-26T15:05:32;95140.09;;;27.16;23.18
27958;BME280;15295;42.658;23.374;2022-10-26T15:08:00;95124.34;;;26.99;23.38
27958;BME280;15295;42.658;23.374;2022-10-26T15:13:27;95113.31;;;26.60;23.59
27958;BME280;15295;42.658;23.374;2022-10-26T15:16:24;95114.50;;;26.54;23.65
27958;BME280;15295;42.658;23.374;2022-10-26T15:21:49;95131.00;;;26.32;23.58
27958;BME280;15295;42.658;23.374;2022-10-26T15:24:28;95152.16;;;26.33;24.04
27958;BME280;15295;42.658;23.374;2022-10-26T15:26:55;95140.31;;;26.09;24.05
27958;BME280;15295;42.658;23.374;2022-10-26T15:29:45;95144.66;;;26.10;24.64
27958;BME280;15295;42.658;23.374;2022-10-26T15:32:32;95128.72;;;25.86;25.08
27958;BME280;15295;42.658;23.374;2022-10-26T15:35:14;95160.88;;;26.06;25.04
27958;BME280;15295;42.658;23.374;2022-10-26T15:37:50;95140.13;;;25.83;24.96
27958;BME280;15295;42.658;23.374;2022-10-26T15:40:24;95171.50;;;25.87;25.58
27958;BME280;15295;42.658;23.374;2022-10-26T15:42:54;95169.44;;;25.73;25.61
27958;BME280;15295;42.658;23.374;2022-10-26T15:45:44;95139.13;;;25.42;25.52
27958;BME280;15295;42.658;23.374;2022-10-26T15:48:22;95179.47;;;25.50;25.61
27958;BME280;15295;42.658;23.374;2022-10-26T15:50:54;95142.88;;;25.15;25.97
27958;BME280;15295;42.658;23.374;2022-10-26T15:53:26;95185.16;;;25.32;25.70
27958;BME280;15295;42.658;23.374;2022-10-26T15:56:01;95167.94;;;25.10;25.77
27958;BME280;15295;42.658;23.374;2022-10-26T15:58:42;95158.16;;;24.91;26.25
27958;BME280;15295;42.658;23.374;2022-10-26T16:01:27;95176.44;;;24.92;26.19
27958;BME280;15295;42.658;23.374;2022-10-26T16:04:03;95196.25;;;25.03;26.26
27958;BME280;15295;42.658;23.374;2022-10-26T16:06:34;95177.94;;;24.78;26.31
27958;BME280;15295;42.658;23.374;2022-10-26T16:09:21;95163.84;;;24.64;26.20
27958;BME280;15295;42.658;23.374;2022-10-26T16:11:46;95211.31;;;24.82;26.53